Latest Weather Observations for Ben Nevis

IDV60801

Issued at 6:05 pm EST Thursday 2 October 2014 (issued every 30 minutes, with the page automatically refreshed every 10 minutes)

About weather observations | Map of weather stations | Latest weather observations for VIC | Other Formats
Station Details ID: 079101 Name: BEN NEVIS Lat: -37.23 Lon: 143.20 Height: 875.0 m
Data from the previous 72 hours. | See also: Recent months at Ben Nevis
Date/Time
EST
Temp
°C
App
Temp
°C
Dew
Point
Rel
Hum
%
Delta-T
°C
Wind Press
QNH
hPa
Press
MSL
hPa
Rain
since 9 am
mm
Dir
 
Spd
km/h
Gust
km/h
Spd
kts
Gust
kts
02/06:00pm 8.7 4.9 5.8 82 1.4 SSW 15 24 8 13 - - 0.0
02/05:30pm 9.3 4.7 5.7 78 1.7 SSW 19 30 10 16 - - 0.0
02/05:00pm 9.8 5.6 5.8 76 1.9 SSW 17 26 9 14 - - 0.0
02/04:30pm 10.4 6.3 6.0 74 2.1 SW 17 26 9 14 - - 0.0
02/04:00pm 10.9 6.8 6.3 73 2.3 SW 17 24 9 13 - - 0.0
02/03:30pm 10.7 6.2 5.9 72 2.3 SSW 19 33 10 18 - - 0.0
02/03:00pm 10.4 5.7 6.0 74 2.1 SSW 20 32 11 17 - - 0.0
02/02:30pm 10.4 6.3 6.0 74 2.1 SW 17 28 9 15 - - 0.0
02/02:00pm 11.0 6.4 6.6 74 2.2 SW 20 33 11 18 - - 0.0
02/01:30pm 10.4 5.6 5.6 72 2.3 SW 20 37 11 20 - - 0.0
02/01:00pm 10.0 5.4 5.6 74 2.1 SW 19 28 10 15 - - 0.0
02/12:30pm 9.6 5.5 6.3 80 1.6 SW 17 30 9 16 - - 0.0
02/12:00pm 9.0 4.7 7.0 87 1.0 SW 19 32 10 17 - - 0.0
02/11:30am 8.0 3.5 6.1 88 0.9 SW 19 30 10 16 - - 0.0
02/11:00am 8.4 3.8 6.5 88 0.9 SW 20 30 11 16 - - 0.0
02/10:30am 7.3 2.6 6.1 92 0.6 SW 20 39 11 21 - - 0.0
02/10:00am 6.5 1.5 6.4 99 0.0 SW 22 35 12 19 - - 0.0
02/09:30am 6.0 0.9 5.9 99 0.0 SW 22 37 12 20 - - 0.0
02/09:00am 5.8 -0.1 5.7 99 0.0 SW 26 39 14 21 - - 0.2
02/08:30am 5.6 0.8 5.5 99 0.0 SW 20 30 11 16 - - 0.2
02/08:00am 5.3 0.4 5.2 99 0.0 SW 20 30 11 16 - - 0.0
02/07:30am 5.0 0.2 4.9 99 0.0 SW 19 28 10 15 - - 0.0
02/07:00am 4.6 -1.6 4.5 99 0.0 SW 26 37 14 20 - - 0.0
02/06:30am 4.4 -1.4 4.3 99 0.0 SW 24 39 13 21 - - 0.0
02/06:00am 4.3 -1.6 4.0 98 0.1 SW 24 43 13 23 - - 0.0
02/05:30am 4.4 -2.3 3.8 96 0.3 SW 28 39 15 21 - - 0.0
02/05:00am 4.4 -1.9 3.8 96 0.3 SW 26 43 14 23 - - 0.0
02/04:30am 4.1 -2.5 4.0 99 0.0 SW 28 44 15 24 - - 0.0
02/04:00am 4.1 -1.4 4.0 99 0.0 SW 22 41 12 22 - - 0.0
02/03:30am 4.1 -1.4 4.0 99 0.0 SW 22 35 12 19 - - 0.0
02/03:00am 4.1 -1.8 3.8 98 0.1 SW 24 33 13 18 - - 0.0
02/02:30am 4.0 -1.2 3.6 97 0.2 SW 20 35 11 19 - - 0.0
02/02:00am 3.9 -1.7 3.5 97 0.2 SW 22 35 12 19 - - 0.0
02/01:30am 3.8 -2.6 3.2 96 0.3 SW 26 37 14 20 - - 0.0
02/01:00am 3.5 -3.7 2.9 96 0.3 SW 30 43 16 23 - - 0.0
02/12:30am 3.3 -4.3 2.7 96 0.3 SSW 32 44 17 24 - - 0.0
02/12:00am 3.4 -4.3 2.4 93 0.4 SW 32 48 17 26 - - 0.0
 
Date/Time
EST
Temp
°C
App
Temp
°C
Dew
Point
Rel
Hum
%
Delta-T
°C
Wind Press
QNH
hPa
Press
MSL
hPa
Rain
since 9 am
mm
Dir
 
Spd
km/h
Gust
km/h
Spd
kts
Gust
kts
01/11:30pm 3.6 -3.7 2.6 93 0.4 SW 30 43 16 23 - - 0.0
01/11:00pm 3.6 -4.0 2.7 94 0.4 SW 32 44 17 24 - - 0.0
01/10:30pm 3.6 -2.8 3.0 96 0.3 SW 26 39 14 21 - - 0.0
01/10:00pm 3.8 -2.9 3.4 97 0.2 SW 28 41 15 22 - - 0.0
01/09:30pm 4.0 -3.1 3.6 97 0.2 SW 30 39 16 21 - - 0.0
01/09:00pm 4.3 -1.6 4.0 98 0.1 SW 24 35 13 19 - - 0.0
01/08:30pm 4.6 -0.9 3.9 95 0.3 SW 22 32 12 17 - - 0.0
01/08:00pm 4.8 -1.6 3.0 88 0.8 SW 26 41 14 22 - - 0.0
01/07:30pm 5.0 -1.8 2.9 86 0.9 SW 28 39 15 21 - - 0.0
01/07:00pm 5.2 -0.9 2.9 85 1.0 SW 24 33 13 18 - - 0.0
01/06:30pm 5.5 0.1 2.7 82 1.2 SW 20 32 11 17 - - 0.0
01/06:00pm 6.2 1.4 2.8 79 1.5 SW 17 26 9 14 - - 0.0
01/05:30pm 6.8 1.6 2.5 74 1.9 SW 19 32 10 17 - - 0.0
01/05:00pm 7.8 3.4 2.7 70 2.3 SW 15 24 8 13 - - 0.0
01/04:30pm 7.9 2.0 1.7 65 2.7 SW 22 32 12 17 - - 0.0
01/04:00pm 9.0 4.2 2.8 65 2.8 SW 17 26 9 14 - - 0.0
01/03:30pm 8.3 2.8 0.8 59 3.2 SW 19 28 10 15 - - 0.0
01/03:00pm 9.1 4.5 1.8 60 3.2 SW 15 26 8 14 - - 0.0
01/02:30pm 9.5 4.4 2.8 63 3.0 SW 19 28 10 15 - - 0.0
01/02:00pm 9.5 5.0 2.4 61 3.2 SW 15 24 8 13 - - 0.0
01/01:30pm 9.2 4.3 1.9 60 3.2 SW 17 26 9 14 - - 0.0
01/01:00pm 8.2 1.8 0.7 59 3.2 SW 24 33 13 18 - - 0.0
01/12:30pm 8.8 3.1 0.5 56 3.5 SW 20 33 11 18 - - 0.0
01/12:00pm 7.6 3.0 1.7 66 2.5 WSW 15 30 8 16 - - 0.0
01/11:30am 8.1 2.4 3.0 70 2.3 WSW 22 32 12 17 - - 0.0
01/11:00am 6.3 1.1 2.4 76 1.7 SW 19 33 10 18 - - 0.0
01/10:30am 5.8 0.6 2.3 78 1.5 WSW 19 30 10 16 - - 0.0
01/10:00am 6.7 1.4 1.8 71 2.1 SW 19 28 10 15 - - 0.0
01/09:30am 4.8 -0.8 1.1 77 1.5 SW 20 32 11 17 - - 0.0
01/09:00am 4.6 0.0 1.8 82 1.2 WSW 15 22 8 12 - - 0.8
01/08:30am 3.5 -1.7 2.2 91 0.5 SW 19 28 10 15 - - 0.8
01/08:00am 4.0 -0.9 2.0 87 0.8 SW 17 30 9 16 - - 0.8
01/07:30am 2.4 -3.6 0.8 89 0.6 SW 22 39 12 21 - - 0.8
01/07:00am 1.7 -5.2 0.4 91 0.5 SW 26 41 14 22 - - 0.8
01/06:30am 1.8 -5.3 1.1 95 0.3 SW 28 39 15 21 - - 0.8
01/06:00am 1.4 -5.8 0.5 94 0.4 SW 28 41 15 22 - - 0.8
01/05:30am 1.2 -6.1 0.3 94 0.4 SW 28 43 15 23 - - 0.8
01/05:00am 1.1 -6.9 0.1 93 0.4 SW 32 46 17 25 - - 0.8
01/04:33am 1.5 -6.5 0.5 93 0.4 SW 32 50 17 27 - - 0.8
01/04:30am 1.5 -6.7 0.5 93 0.4 SW 33 50 18 27 - - 0.8
01/04:02am 1.2 -6.0 0.5 95 0.3 SW 28 46 15 25 - - 0.8
01/04:00am 1.2 -6.4 0.5 95 0.3 SW 30 46 16 25 - - 0.8
01/03:41am 1.5 -5.7 0.8 95 0.3 SW 28 46 15 25 - - 0.8
01/03:30am 1.4 -5.8 0.8 96 0.2 SW 28 44 15 24 - - 0.8
01/03:00am 1.0 -6.3 0.3 95 0.3 SW 28 39 15 21 - - 0.8
01/02:30am 1.3 -6.7 0.4 94 0.4 SW 32 52 17 28 - - 0.8
01/02:00am 1.5 -6.1 0.6 94 0.4 SW 30 54 16 29 - - 0.8
01/01:30am 1.2 -6.9 0.0 92 0.5 SW 32 52 17 28 - - 0.8
01/01:00am 1.6 -7.0 0.1 90 0.6 SW 35 57 19 31 - - 0.8
01/12:30am 1.9 -6.7 0.3 89 0.6 SW 35 54 19 29 - - 0.8
01/12:00am 2.0 -6.0 0.5 90 0.6 WSW 32 59 17 32 - - 0.8
 
Date/Time
EST
Temp
°C
App
Temp
°C
Dew
Point
Rel
Hum
%
Delta-T
°C
Wind Press
QNH
hPa
Press
MSL
hPa
Rain
since 9 am
mm
Dir
 
Spd
km/h
Gust
km/h
Spd
kts
Gust
kts
30/11:35pm 1.6 -6.4 0.4 92 0.5 WSW 32 59 17 32 - - 0.8
30/11:30pm 1.6 -6.4 0.4 92 0.5 WSW 32 46 17 25 - - 0.8
30/11:08pm 1.6 -7.0 0.3 91 0.5 WSW 35 59 19 32 - - 0.8
30/11:00pm 1.6 -6.4 0.1 90 0.6 WSW 32 44 17 24 - - 0.8
30/10:30pm 1.8 -6.9 -0.3 86 0.8 WSW 35 54 19 29 - - 0.8
30/10:03pm 1.8 -6.9 -0.6 84 0.9 WSW 35 54 19 29 - - 0.8
30/10:00pm 1.9 -7.2 -0.5 84 0.9 WSW 37 54 20 29 - - 0.8
30/09:41pm 1.9 -6.8 -0.3 85 0.9 WSW 35 54 19 29 - - 0.8
30/09:30pm 1.8 -6.8 0.0 88 0.7 WSW 35 52 19 28 - - 0.8
30/09:28pm 1.8 -6.5 0.0 88 0.7 WSW 33 52 18 28 - - 0.8
30/09:00pm 2.2 -6.0 0.6 89 0.6 WSW 33 46 18 25 - - 0.8
30/08:30pm 2.8 -8.2 0.7 86 0.8 WSW 48 78 26 42 - - 0.8
30/08:21pm 3.2 -7.5 0.1 80 1.2 WSW 46 78 25 42 - - 0.8
30/08:00pm 3.7 -4.8 0.6 80 1.3 WSW 35 59 19 32 - - 0.8
30/07:46pm 4.3 -4.3 0.5 76 1.5 WSW 35 54 19 29 - - 0.8
30/07:30pm 4.5 -4.4 0.6 76 1.6 WSW 37 52 20 28 - - 0.8
30/07:14pm 4.7 -3.8 0.8 76 1.6 WSW 35 54 19 29 - - 0.8
30/07:00pm 4.8 -4.1 0.8 75 1.6 WSW 37 52 20 28 - - 0.8
30/06:30pm 5.0 -4.5 1.8 80 1.4 WSW 41 63 22 34 - - 0.8
30/06:00pm 6.0 -2.3 2.1 76 1.7 WSW 35 59 19 32 - - 0.8
30/05:30pm 6.5 -1.3 2.8 77 1.6 WSW 33 63 18 34 - - 0.8
30/05:00pm 6.8 -2.8 3.6 80 1.4 WSW 43 63 23 34 - - 0.8
30/04:30pm 6.6 -1.7 6.0 96 0.3 WSW 39 61 21 33 - - 0.8
30/04:00pm 6.0 -1.6 5.9 99 0.0 WSW 35 56 19 30 - - 0.8
30/03:30pm 5.9 -3.8 5.8 99 0.0 W 46 74 25 40 - - 0.6
30/03:00pm 6.1 -5.6 5.5 96 0.3 WSW 56 78 30 42 - - 0.6
30/02:59pm 6.2 -5.6 5.6 96 0.3 WSW 57 78 31 42 - - 0.6
30/02:30pm 9.4 2.3 8.2 92 0.6 W 35 70 19 38 - - 0.0
30/02:21pm 9.8 2.7 8.2 90 0.8 W 35 70 19 38 - - 0.0
30/02:01pm 11.0 4.9 6.4 73 2.3 W 28 50 15 27 - - 0.0
30/02:00pm 11.4 6.0 6.3 71 2.5 W 24 35 13 19 - - 0.0
30/01:31pm 14.2 7.7 4.5 52 4.7 NNW 28 57 15 31 - - 0.0
30/01:30pm 14.2 8.5 4.8 53 4.6 N 24 46 13 25 - - 0.0
30/01:00pm 13.7 6.2 3.5 50 4.8 WNW 32 50 17 27 - - 0.0
30/12:30pm 13.8 9.2 3.9 51 4.7 ENE 17 44 9 24 - - 0.0
30/12:00pm 13.9 9.2 5.3 56 4.2 NNE 19 33 10 18 - - 0.0
30/11:30am 13.0 7.3 4.9 58 3.9 N 24 44 13 24 - - 0.0
30/11:00am 12.0 6.7 5.2 63 3.3 N 22 46 12 25 - - 0.0
30/10:30am 11.9 7.3 6.4 69 2.7 N 20 43 11 23 - - 0.0
30/10:00am 11.0 6.3 6.0 71 2.4 N 20 35 11 19 - - 0.0
30/09:30am 11.8 7.6 7.3 74 2.3 NNW 19 39 10 21 - - 0.0
30/09:00am 11.0 7.3 8.0 82 1.5 N 17 35 9 19 - - 0.0
30/08:30am 9.1 5.2 6.9 86 1.1 NNW 17 32 9 17 - - 0.0
30/08:00am 8.5 4.5 6.5 87 1.0 NNW 17 28 9 15 - - 0.0
30/07:30am 8.8 5.7 7.1 89 0.8 N 13 20 7 11 - - 0.0
30/07:00am 7.4 4.3 7.3 99 0.0 NNW 13 22 7 12 - - 0.0
30/06:30am 6.8 4.3 6.7 99 0.0 NNW 9 17 5 9 - - 0.0
30/06:00am 6.5 4.0 6.4 99 0.0 NW 9 20 5 11 - - 0.0
30/05:30am 6.5 3.2 6.4 99 0.0 WNW 13 22 7 12 - - 0.0
30/05:00am 6.4 3.5 6.3 99 0.0 NW 11 19 6 10 - - 0.0
30/04:30am 6.5 3.6 6.4 99 0.0 NW 11 28 6 15 - - 0.0
30/04:00am 6.5 3.5 6.2 98 0.1 WNW 11 20 6 11 - - 0.0
30/03:30am 6.5 3.9 5.9 96 0.3 NW 9 19 5 10 - - 0.0
30/03:00am 6.9 3.9 6.0 94 0.4 WNW 11 19 6 10 - - 0.0
30/02:30am 7.4 4.4 6.0 91 0.7 NW 11 20 6 11 - - 0.0
30/02:00am 7.9 4.2 6.2 89 0.8 WNW 15 28 8 15 - - 0.0
30/01:30am 8.3 4.6 6.4 88 0.9 WNW 15 26 8 14 - - 0.0
30/01:00am 9.0 5.7 6.4 84 1.3 WNW 13 24 7 13 - - 0.0
30/12:30am 9.4 6.5 6.7 83 1.3 NW 11 19 6 10 - - 0.0
30/12:00am 9.0 6.4 6.1 82 1.4 WNW 9 15 5 8 - - 0.0
 
Date/Time
EST
Temp
°C
App
Temp
°C
Dew
Point
Rel
Hum
%
Delta-T
°C
Wind Press
QNH
hPa
Press
MSL
hPa
Rain
since 9 am
mm
Dir
 
Spd
km/h
Gust
km/h
Spd
kts
Gust
kts
29/11:30pm 9.8 7.1 5.8 76 1.9 NW 9 19 5 10 - - 0.0
29/11:00pm 11.2 7.9 6.5 73 2.3 NNW 13 22 7 12 - - 0.0
29/10:30pm 10.5 8.0 6.5 76 2.0 N 9 20 5 11 - - 0.0
29/10:00pm 10.7 7.8 6.3 74 2.2 NNW 11 26 6 14 - - 0.0
29/09:30pm 11.4 8.5 6.3 71 2.5 N 11 22 6 12 - - 0.0
29/09:00pm 11.6 8.7 6.3 70 2.6 N 11 20 6 11 - - 0.0
29/08:30pm 11.9 8.6 6.2 68 2.8 N 13 24 7 13 - - 0.0
29/08:00pm 12.2 9.2 6.0 66 3.1 N 11 26 6 14 - - 0.0
29/07:30pm 12.5 9.1 5.9 64 3.3 N 13 26 7 14 - - 0.0
29/07:00pm 12.6 9.1 5.3 61 3.6 N 13 22 7 12 - - 0.0
29/06:30pm 12.9 9.3 5.1 59 3.8 N 13 24 7 13 - - 0.0

Other Formats:

Comma delimited format used in spreadsheet applications
http://www.bom.gov.au/fwo/IDV60801/IDV60801.94835.axf

JavaScript Object Notation format (JSON) in row-major order
http://www.bom.gov.au/fwo/IDV60801/IDV60801.94835.json